createdAt,value
2018-12-22T00:01:16.412Z,84.10
2018-12-22T00:06:19.654Z,83.90
2018-12-22T00:16:25.413Z,83.20
2018-12-22T00:21:28.000Z,83.60
2018-12-22T00:26:30.576Z,83.50
2018-12-22T00:31:33.161Z,83.80
2018-12-22T00:36:36.469Z,83.60
2018-12-22T00:41:39.613Z,83.90
2018-12-22T00:46:42.198Z,84.10
2018-12-22T00:51:45.243Z,84.00
2018-12-22T00:56:48.106Z,84.20
2018-12-22T01:06:53.981Z,84.30
2018-12-22T01:11:57.475Z,84.00
2018-12-22T01:17:00.073Z,83.90
2018-12-22T01:22:02.923Z,84.50
2018-12-22T01:27:05.500Z,84.40
2018-12-22T01:32:08.959Z,84.20
2018-12-22T01:38:22.389Z,82.90
2018-12-22T01:43:30.753Z,82.90
2018-12-22T01:53:47.161Z,82.80
2018-12-22T01:58:49.729Z,83.50
2018-12-22T02:03:52.305Z,83.40
2018-12-22T02:08:55.189Z,83.60
2018-12-22T02:13:58.347Z,83.30
2018-12-22T02:19:01.291Z,82.80
2018-12-22T02:24:04.589Z,83.30
2018-12-22T02:29:08.622Z,82.40
2018-12-22T02:34:11.869Z,82.90
2018-12-22T02:44:18.085Z,84.40
2018-12-22T02:49:36.283Z,84.90
2018-12-22T02:54:38.871Z,84.20
2018-12-22T02:59:42.453Z,83.60
2018-12-22T03:09:49.303Z,84.00
2018-12-22T03:19:57.817Z,83.80
2018-12-22T03:25:00.560Z,84.20
2018-12-22T03:30:05.312Z,84.10
2018-12-22T03:35:08.438Z,82.80
2018-12-22T03:40:11.412Z,81.70
2018-12-22T03:45:14.737Z,81.20
2018-12-22T03:50:17.422Z,81.70
2018-12-22T03:55:20.853Z,81.10
2018-12-22T04:00:26.379Z,80.30
2018-12-22T04:05:30.267Z,79.90
2018-12-22T04:10:33.082Z,80.30
2018-12-22T04:15:35.917Z,82.50
2018-12-22T04:20:38.860Z,82.60
2018-12-22T04:25:41.785Z,81.50
2018-12-22T04:30:44.776Z,82.70
2018-12-22T04:35:48.488Z,82.80
2018-12-22T04:40:51.854Z,81.80
2018-12-22T04:45:54.948Z,80.80
2018-12-22T04:51:00.449Z,78.90
2018-12-22T04:56:04.663Z,79.10
2018-12-22T05:01:07.291Z,78.60
2018-12-22T05:06:11.767Z,79.10
2018-12-22T05:16:18.471Z,79.70
2018-12-22T05:21:23.705Z,80.50
2018-12-22T05:26:27.112Z,80.40
2018-12-22T05:31:29.740Z,80.00
2018-12-22T05:36:32.407Z,80.30
2018-12-22T05:41:35.314Z,80.10
2018-12-22T05:46:38.123Z,80.10
2018-12-22T05:51:42.296Z,80.00
2018-12-22T05:56:47.811Z,80.00
2018-12-22T06:01:50.507Z,80.00
2018-12-22T06:06:53.730Z,79.90
2018-12-22T06:11:57.147Z,81.10
2018-12-22T06:17:00.320Z,80.60
2018-12-22T06:22:04.448Z,81.00
2018-12-22T06:27:07.665Z,80.40
2018-12-22T06:32:10.421Z,80.40
2018-12-22T06:37:14.226Z,80.60
2018-12-22T06:42:17.199Z,80.90
2018-12-22T06:47:20.349Z,80.20
2018-12-22T06:52:23.964Z,80.40
2018-12-22T06:57:26.584Z,80.80
2018-12-22T07:02:29.766Z,80.80
2018-12-22T07:07:32.613Z,81.90
2018-12-22T07:12:35.598Z,81.10
2018-12-22T07:17:38.939Z,80.80
2018-12-22T07:22:41.854Z,81.00
2018-12-22T07:27:44.950Z,80.00
2018-12-22T07:32:56.699Z,79.80
2018-12-22T07:37:53.714Z,80.80
2018-12-22T07:42:56.634Z,79.70
2018-12-22T07:47:59.459Z,78.70
2018-12-22T07:58:08.630Z,79.60
2018-12-22T08:03:13.870Z,80.20
2018-12-22T08:08:17.402Z,79.90
2018-12-22T08:13:20.872Z,79.70
2018-12-22T08:18:24.636Z,78.90
2018-12-22T08:23:27.640Z,77.90
2018-12-22T08:28:30.813Z,78.60
2018-12-22T08:33:34.663Z,81.40
2018-12-22T08:38:37.498Z,82.50
2018-12-22T08:43:41.152Z,84.40
2018-12-22T08:48:45.125Z,83.20
2018-12-22T08:53:47.976Z,80.20
2018-12-22T08:58:51.171Z,76.30
2018-12-22T09:03:54.504Z,75.80
2018-12-22T09:08:57.533Z,77.60
2018-12-22T09:14:08.299Z,78.50
2018-12-22T09:19:17.671Z,78.00
2018-12-22T09:24:21.031Z,76.50
2018-12-22T09:29:24.400Z,75.80
2018-12-22T09:34:27.722Z,75.50
2018-12-22T09:39:30.368Z,75.30
2018-12-22T09:44:34.941Z,75.50
2018-12-22T09:49:37.990Z,76.30
2018-12-22T09:54:41.533Z,77.30
2018-12-22T09:59:45.377Z,78.20
2018-12-22T10:04:48.210Z,78.30
2018-12-22T10:09:51.203Z,78.20
2018-12-22T10:14:54.191Z,78.30
2018-12-22T10:19:57.073Z,77.80
2018-12-22T10:25:02.666Z,76.80
2018-12-22T10:30:08.253Z,77.20
2018-12-22T10:35:15.040Z,77.20
2018-12-22T10:40:18.390Z,77.40
2018-12-22T10:45:21.168Z,77.10
2018-12-22T10:50:24.351Z,77.50
2018-12-22T10:55:27.289Z,76.60
2018-12-22T11:00:30.614Z,76.40
2018-12-22T11:05:34.627Z,76.20
2018-12-22T11:10:39.015Z,75.80
2018-12-22T11:15:41.785Z,76.00
2018-12-22T11:20:44.796Z,75.20
2018-12-22T11:25:47.959Z,74.80
2018-12-22T11:30:50.752Z,74.60
2018-12-22T11:35:53.759Z,74.90
2018-12-22T11:40:56.975Z,74.90
2018-12-22T11:46:00.122Z,74.00
2018-12-22T11:51:02.887Z,74.30
2018-12-22T11:56:05.628Z,75.10
2018-12-22T12:01:14.910Z,73.50
2018-12-22T12:06:18.159Z,73.60
2018-12-22T12:11:21.150Z,73.30
2018-12-22T12:16:24.462Z,72.90
2018-12-22T12:21:28.610Z,72.10
2018-12-22T12:26:31.782Z,71.90
2018-12-22T12:31:34.992Z,71.10
2018-12-22T12:36:38.656Z,71.00
2018-12-22T12:41:42.002Z,70.30
2018-12-22T12:46:44.976Z,68.80
2018-12-22T12:51:48.676Z,69.50
2018-12-22T12:56:51.421Z,68.90
2018-12-22T13:02:00.948Z,68.60
2018-12-22T13:07:01.088Z,68.60
2018-12-22T13:12:05.528Z,68.30
2018-12-22T13:17:08.837Z,68.90
2018-12-22T13:22:11.853Z,68.50
2018-12-22T13:27:15.237Z,68.00
2018-12-22T13:32:18.288Z,67.70
2018-12-22T13:37:21.914Z,67.70
2018-12-22T13:42:24.642Z,67.00
2018-12-22T13:47:27.974Z,66.60
2018-12-22T13:52:31.103Z,66.10
2018-12-22T13:57:34.187Z,65.80
2018-12-22T14:02:37.627Z,65.70
2018-12-22T14:07:40.467Z,65.70
2018-12-22T14:12:43.492Z,65.80
2018-12-22T14:23:32.454Z,67.20
2018-12-22T14:28:36.350Z,67.30
2018-12-22T14:33:40.513Z,67.60
2018-12-22T14:38:44.140Z,68.40
2018-12-22T14:43:47.310Z,68.60
2018-12-22T14:48:50.460Z,68.60
2018-12-22T14:53:53.760Z,68.60
2018-12-22T14:58:56.586Z,68.50
2018-12-22T15:03:59.195Z,68.30
2018-12-22T15:09:13.080Z,68.00
2018-12-22T15:14:10.783Z,67.70
2018-12-22T15:19:13.549Z,67.00
2018-12-22T15:24:16.944Z,67.10
2018-12-22T15:29:30.231Z,67.00
2018-12-22T15:34:33.107Z,66.60
2018-12-22T15:39:36.277Z,67.90
2018-12-22T15:44:39.100Z,69.80
2018-12-22T15:49:42.604Z,72.40
2018-12-22T15:54:46.953Z,73.70
2018-12-22T15:59:50.210Z,74.90
2018-12-22T16:04:53.172Z,76.80
2018-12-22T16:09:57.045Z,77.10
2018-12-22T16:15:01.240Z,76.40
2018-12-22T16:20:08.445Z,77.10
2018-12-22T16:25:13.536Z,76.70
2018-12-22T16:30:21.708Z,76.40
2018-12-22T16:35:25.135Z,75.80
2018-12-22T16:40:28.615Z,76.30
2018-12-22T16:45:31.985Z,75.70
2018-12-22T16:50:37.157Z,74.80
2018-12-22T16:55:40.710Z,73.30
2018-12-22T17:06:24.426Z,71.40
2018-12-22T17:11:38.617Z,70.90
2018-12-22T17:16:41.482Z,70.40
2018-12-22T17:21:44.849Z,73.40
2018-12-22T17:26:47.582Z,74.00
2018-12-22T17:31:50.511Z,74.10
2018-12-22T17:36:53.656Z,74.20
2018-12-22T17:41:57.302Z,74.10
2018-12-22T17:47:00.068Z,73.20
2018-12-22T17:52:03.236Z,72.80
2018-12-22T17:57:06.142Z,72.20
2018-12-22T18:02:09.165Z,71.60
2018-12-22T18:07:12.041Z,71.80
2018-12-22T18:12:14.795Z,72.10
2018-12-22T18:17:18.221Z,72.40
2018-12-22T18:22:21.017Z,72.40
2018-12-22T18:27:24.359Z,74.20
2018-12-22T18:32:27.663Z,75.40
2018-12-22T18:37:34.108Z,77.80
2018-12-22T18:42:36.963Z,78.40
2018-12-22T18:47:40.159Z,79.10
2018-12-22T18:52:43.043Z,78.40
2018-12-22T18:57:49.181Z,78.80
2018-12-22T19:02:52.732Z,78.40
2018-12-22T19:07:55.549Z,77.90
2018-12-22T19:12:58.230Z,76.80
2018-12-22T19:18:00.974Z,76.70
2018-12-22T19:23:03.844Z,76.50
2018-12-22T19:28:06.856Z,76.50
2018-12-22T19:33:16.243Z,76.10
2018-12-22T19:38:19.564Z,76.40
2018-12-22T19:43:22.653Z,75.50
2018-12-22T19:48:28.160Z,75.90
2018-12-22T19:53:30.810Z,74.90
2018-12-22T19:58:34.062Z,74.50
2018-12-22T20:03:36.701Z,74.90
2018-12-22T20:08:39.480Z,73.40
2018-12-22T20:13:45.698Z,73.30
2018-12-22T20:18:49.323Z,73.60
2018-12-22T20:23:52.210Z,73.90
2018-12-22T20:28:54.864Z,76.00
2018-12-22T20:33:57.749Z,78.50
2018-12-22T20:39:00.638Z,80.40
2018-12-22T20:44:03.392Z,82.70
2018-12-22T20:49:06.235Z,83.10
2018-12-22T20:54:09.348Z,82.50
2018-12-22T20:59:13.434Z,82.50
2018-12-22T21:04:19.987Z,82.90
2018-12-22T21:09:21.560Z,83.60
2018-12-22T21:14:24.472Z,84.20
2018-12-22T21:19:27.568Z,83.80
2018-12-22T21:24:30.680Z,82.00
2018-12-22T21:29:33.515Z,81.20
2018-12-22T21:34:39.366Z,81.10
2018-12-22T21:39:42.401Z,81.10
2018-12-22T21:44:45.459Z,81.00
2018-12-22T21:49:48.109Z,80.30
2018-12-22T21:54:50.883Z,79.80
2018-12-22T21:59:54.082Z,80.00
2018-12-22T22:04:57.017Z,79.80
2018-12-22T22:09:59.979Z,80.10
2018-12-22T22:15:03.897Z,80.00
2018-12-22T22:20:07.583Z,80.00
2018-12-22T22:25:10.345Z,79.10
2018-12-22T22:30:13.379Z,78.50
2018-12-22T22:35:16.307Z,77.50
2018-12-22T22:40:19.204Z,77.20
2018-12-22T22:45:21.942Z,76.00
2018-12-22T22:50:25.144Z,75.80
2018-12-22T22:55:27.835Z,75.60
2018-12-22T23:00:32.962Z,75.90
2018-12-22T23:05:35.588Z,75.00
2018-12-22T23:10:38.183Z,75.20
2018-12-22T23:15:42.218Z,75.10
2018-12-22T23:20:44.952Z,75.10
2018-12-22T23:25:47.810Z,74.60
2018-12-22T23:30:51.516Z,74.00
2018-12-22T23:35:54.184Z,74.40
2018-12-22T23:40:57.308Z,74.10
2018-12-22T23:46:00.567Z,73.60
2018-12-22T23:51:04.880Z,73.90
2018-12-22T23:56:07.569Z,73.90
